sensor_id;sensor_type;location;lat;lon;timestamp;temperature;humidity
71367;DHT22;60030;52.274;8.040;2022-09-09T00:00:28;17.40;99.90
71367;DHT22;60030;52.274;8.040;2022-09-09T00:03:02;17.40;99.90
71367;DHT22;60030;52.274;8.040;2022-09-09T00:05:39;17.40;99.90
71367;DHT22;60030;52.274;8.040;2022-09-09T00:08:14;17.30;99.90
71367;DHT22;60030;52.274;8.040;2022-09-09T00:10:42;17.40;99.90
71367;DHT22;60030;52.274;8.040;2022-09-09T00:13:18;17.20;99.90
71367;DHT22;60030;52.274;8.040;2022-09-09T00:15:55;17.30;99.90
71367;DHT22;60030;52.274;8.040;2022-09-09T00:18:27;17.20;99.90
71367;DHT22;60030;52.274;8.040;2022-09-09T00:21:00;17.30;99.90
71367;DHT22;60030;52.274;8.040;2022-09-09T00:23:33;17.30;99.90
71367;DHT22;60030;52.274;8.040;2022-09-09T00:26:07;17.20;99.90
71367;DHT22;60030;52.274;8.040;2022-09-09T00:28:39;17.30;99.90
71367;DHT22;60030;52.274;8.040;2022-09-09T00:31:12;17.30;99.90
71367;DHT22;60030;52.274;8.040;2022-09-09T00:33:40;17.30;99.90
71367;DHT22;60030;52.274;8.040;2022-09-09T00:36:13;17.20;99.90
71367;DHT22;60030;52.274;8.040;2022-09-09T00:38:46;17.20;99.90
71367;DHT22;60030;52.274;8.040;2022-09-09T00:41:20;17.20;99.90
71367;DHT22;60030;52.274;8.040;2022-09-09T00:43:55;17.30;99.90
71367;DHT22;60030;52.274;8.040;2022-09-09T00:46:45;17.30;99.90
71367;DHT22;60030;52.274;8.040;2022-09-09T00:49:25;17.40;99.90
71367;DHT22;60030;52.274;8.040;2022-09-09T00:52:06;17.30;99.90
71367;DHT22;60030;52.274;8.040;2022-09-09T00:54:47;17.30;99.90
71367;DHT22;60030;52.274;8.040;2022-09-09T00:57:25;17.20;99.90
71367;DHT22;60030;52.274;8.040;2022-09-09T00:59:59;17.30;99.90
71367;DHT22;60030;52.274;8.040;2022-09-09T01:02:35;17.30;99.90
71367;DHT22;60030;52.274;8.040;2022-09-09T01:05:10;17.30;99.90
71367;DHT22;60030;52.274;8.040;2022-09-09T01:07:40;17.30;99.90
71367;DHT22;60030;52.274;8.040;2022-09-09T01:10:21;17.30;99.90
71367;DHT22;60030;52.274;8.040;2022-09-09T01:12:52;17.30;99.90
71367;DHT22;60030;52.274;8.040;2022-09-09T01:15:24;17.30;99.90
71367;DHT22;60030;52.274;8.040;2022-09-09T01:17:59;17.20;99.90
71367;DHT22;60030;52.274;8.040;2022-09-09T01:20:33;17.20;99.90
71367;DHT22;60030;52.274;8.040;2022-09-09T01:23:14;17.20;99.90
71367;DHT22;60030;52.274;8.040;2022-09-09T01:28:50;17.20;99.90
71367;DHT22;60030;52.274;8.040;2022-09-09T01:31:23;17.30;99.90
71367;DHT22;60030;52.274;8.040;2022-09-09T01:33:52;17.30;99.90
71367;DHT22;60030;52.274;8.040;2022-09-09T01:36:29;17.20;99.90
71367;DHT22;60030;52.274;8.040;2022-09-09T01:38:59;17.20;99.90
71367;DHT22;60030;52.274;8.040;2022-09-09T01:41:27;17.20;99.90
71367;DHT22;60030;52.274;8.040;2022-09-09T01:44:03;17.30;99.90
71367;DHT22;60030;52.274;8.040;2022-09-09T01:46:33;17.20;99.90
71367;DHT22;60030;52.274;8.040;2022-09-09T01:49:04;17.20;99.90
71367;DHT22;60030;52.274;8.040;2022-09-09T01:51:32;17.20;99.90
71367;DHT22;60030;52.274;8.040;2022-09-09T01:54:03;17.20;99.90
71367;DHT22;60030;52.274;8.040;2022-09-09T01:56:39;17.20;99.90
71367;DHT22;60030;52.274;8.040;2022-09-09T02:02:10;17.20;99.90
71367;DHT22;60030;52.274;8.040;2022-09-09T02:04:44;17.10;99.90
71367;DHT22;60030;52.274;8.040;2022-09-09T02:07:31;17.20;99.90
71367;DHT22;60030;52.274;8.040;2022-09-09T02:10:08;17.20;99.90
71367;DHT22;60030;52.274;8.040;2022-09-09T02:12:41;17.20;99.90
71367;DHT22;60030;52.274;8.040;2022-09-09T02:15:15;17.20;99.90
71367;DHT22;60030;52.274;8.040;2022-09-09T02:17:49;17.20;99.90
71367;DHT22;60030;52.274;8.040;2022-09-09T02:20:19;17.20;99.90
71367;DHT22;60030;52.274;8.040;2022-09-09T02:22:56;17.20;99.90
71367;DHT22;60030;52.274;8.040;2022-09-09T02:25:26;17.00;99.90
71367;DHT22;60030;52.274;8.040;2022-09-09T02:27:59;17.00;99.90
71367;DHT22;60030;52.274;8.040;2022-09-09T02:30:29;17.00;99.90
71367;DHT22;60030;52.274;8.040;2022-09-09T02:33:01;16.90;99.90
71367;DHT22;60030;52.274;8.040;2022-09-09T02:35:50;17.00;99.90
71367;DHT22;60030;52.274;8.040;2022-09-09T02:38:21;17.00;99.90
71367;DHT22;60030;52.274;8.040;2022-09-09T02:40:57;17.00;99.90
71367;DHT22;60030;52.274;8.040;2022-09-09T02:43:24;17.10;99.90
71367;DHT22;60030;52.274;8.040;2022-09-09T02:45:59;17.00;99.90
71367;DHT22;60030;52.274;8.040;2022-09-09T02:48:36;17.00;99.90
71367;DHT22;60030;52.274;8.040;2022-09-09T02:51:10;17.00;99.90
71367;DHT22;60030;52.274;8.040;2022-09-09T02:53:48;16.90;99.90
71367;DHT22;60030;52.274;8.040;2022-09-09T02:56:20;17.00;99.90
71367;DHT22;60030;52.274;8.040;2022-09-09T02:58:49;17.00;99.90
71367;DHT22;60030;52.274;8.040;2022-09-09T03:01:19;17.00;99.90
71367;DHT22;60030;52.274;8.040;2022-09-09T03:03:46;16.90;99.90
71367;DHT22;60030;52.274;8.040;2022-09-09T03:06:16;16.90;99.90
71367;DHT22;60030;52.274;8.040;2022-09-09T03:08:47;17.00;99.90
71367;DHT22;60030;52.274;8.040;2022-09-09T03:11:16;17.00;99.90
71367;DHT22;60030;52.274;8.040;2022-09-09T03:13:43;17.00;99.90
71367;DHT22;60030;52.274;8.040;2022-09-09T03:16:10;17.00;99.90
71367;DHT22;60030;52.274;8.040;2022-09-09T03:18:43;17.00;99.90
71367;DHT22;60030;52.274;8.040;2022-09-09T03:21:11;17.00;99.90
71367;DHT22;60030;52.274;8.040;2022-09-09T03:23:40;16.90;99.90
71367;DHT22;60030;52.274;8.040;2022-09-09T03:26:08;16.90;99.90
71367;DHT22;60030;52.274;8.040;2022-09-09T03:28:41;16.90;99.90
71367;DHT22;60030;52.274;8.040;2022-09-09T03:31:09;16.80;99.90
71367;DHT22;60030;52.274;8.040;2022-09-09T03:33:39;16.70;99.90
71367;DHT22;60030;52.274;8.040;2022-09-09T03:36:11;16.70;99.90
71367;DHT22;60030;52.274;8.040;2022-09-09T03:38:39;16.80;99.90
71367;DHT22;60030;52.274;8.040;2022-09-09T03:41:06;16.80;99.90
71367;DHT22;60030;52.274;8.040;2022-09-09T03:43:35;16.80;99.90
71367;DHT22;60030;52.274;8.040;2022-09-09T03:46:04;16.80;99.90
71367;DHT22;60030;52.274;8.040;2022-09-09T03:48:31;16.80;99.90
71367;DHT22;60030;52.274;8.040;2022-09-09T03:50:59;16.70;99.90
71367;DHT22;60030;52.274;8.040;2022-09-09T03:53:30;16.70;99.90
71367;DHT22;60030;52.274;8.040;2022-09-09T03:55:57;16.80;99.90
71367;DHT22;60030;52.274;8.040;2022-09-09T03:58:26;16.80;99.90
71367;DHT22;60030;52.274;8.040;2022-09-09T04:01:00;16.80;99.90
71367;DHT22;60030;52.274;8.040;2022-09-09T04:03:28;16.80;99.90
71367;DHT22;60030;52.274;8.040;2022-09-09T04:05:58;16.80;99.90
71367;DHT22;60030;52.274;8.040;2022-09-09T04:08:28;16.80;99.90
71367;DHT22;60030;52.274;8.040;2022-09-09T04:10:57;16.70;99.90
71367;DHT22;60030;52.274;8.040;2022-09-09T04:13:25;16.70;99.90
71367;DHT22;60030;52.274;8.040;2022-09-09T04:15:53;16.70;99.90
71367;DHT22;60030;52.274;8.040;2022-09-09T04:18:22;16.70;99.90
71367;DHT22;60030;52.274;8.040;2022-09-09T04:20:50;16.70;99.90
71367;DHT22;60030;52.274;8.040;2022-09-09T04:23:21;16.70;99.90
71367;DHT22;60030;52.274;8.040;2022-09-09T04:25:53;16.70;99.90
71367;DHT22;60030;52.274;8.040;2022-09-09T04:28:22;16.70;99.90
71367;DHT22;60030;52.274;8.040;2022-09-09T04:30:50;16.70;99.90
71367;DHT22;60030;52.274;8.040;2022-09-09T04:33:18;16.80;99.90
71367;DHT22;60030;52.274;8.040;2022-09-09T04:35:46;16.80;99.90
71367;DHT22;60030;52.274;8.040;2022-09-09T04:38:15;16.80;99.90
71367;DHT22;60030;52.274;8.040;2022-09-09T04:40:43;16.80;99.90
71367;DHT22;60030;52.274;8.040;2022-09-09T04:43:11;16.70;99.90
71367;DHT22;60030;52.274;8.040;2022-09-09T04:45:40;16.80;99.90
71367;DHT22;60030;52.274;8.040;2022-09-09T04:48:08;16.70;99.90
71367;DHT22;60030;52.274;8.040;2022-09-09T04:50:35;16.70;99.90
71367;DHT22;60030;52.274;8.040;2022-09-09T04:53:03;16.70;99.90
71367;DHT22;60030;52.274;8.040;2022-09-09T04:55:31;16.60;99.90
71367;DHT22;60030;52.274;8.040;2022-09-09T04:58:03;16.70;99.90
71367;DHT22;60030;52.274;8.040;2022-09-09T05:00:33;16.70;99.90
71367;DHT22;60030;52.274;8.040;2022-09-09T05:03:03;16.70;99.90
71367;DHT22;60030;52.274;8.040;2022-09-09T05:05:32;16.70;99.90
71367;DHT22;60030;52.274;8.040;2022-09-09T05:08:04;16.70;99.90
71367;DHT22;60030;52.274;8.040;2022-09-09T05:10:31;16.80;99.90
71367;DHT22;60030;52.274;8.040;2022-09-09T05:12:59;16.80;99.90
71367;DHT22;60030;52.274;8.040;2022-09-09T05:15:28;16.70;99.90
71367;DHT22;60030;52.274;8.040;2022-09-09T05:17:58;16.70;99.90
71367;DHT22;60030;52.274;8.040;2022-09-09T05:20:27;16.80;99.90
71367;DHT22;60030;52.274;8.040;2022-09-09T05:22:55;16.80;99.90
71367;DHT22;60030;52.274;8.040;2022-09-09T05:25:26;16.80;99.90
71367;DHT22;60030;52.274;8.040;2022-09-09T05:27:54;16.80;99.90
71367;DHT22;60030;52.274;8.040;2022-09-09T05:30:22;16.90;99.90
71367;DHT22;60030;52.274;8.040;2022-09-09T05:32:55;16.80;99.90
71367;DHT22;60030;52.274;8.040;2022-09-09T05:35:23;16.90;99.90
71367;DHT22;60030;52.274;8.040;2022-09-09T05:37:51;16.90;99.90
71367;DHT22;60030;52.274;8.040;2022-09-09T05:40:19;16.90;99.90
71367;DHT22;60030;52.274;8.040;2022-09-09T05:42:48;17.00;99.90
71367;DHT22;60030;52.274;8.040;2022-09-09T05:45:15;16.90;99.90
71367;DHT22;60030;52.274;8.040;2022-09-09T05:47:42;17.00;99.90
71367;DHT22;60030;52.274;8.040;2022-09-09T05:50:13;16.90;99.90
71367;DHT22;60030;52.274;8.040;2022-09-09T05:52:42;17.00;99.90
71367;DHT22;60030;52.274;8.040;2022-09-09T05:55:10;17.00;99.90
71367;DHT22;60030;52.274;8.040;2022-09-09T05:57:37;17.10;99.90
71367;DHT22;60030;52.274;8.040;2022-09-09T06:00:06;17.10;99.90
71367;DHT22;60030;52.274;8.040;2022-09-09T06:02:42;17.10;99.90
71367;DHT22;60030;52.274;8.040;2022-09-09T06:05:13;17.10;99.90
71367;DHT22;60030;52.274;8.040;2022-09-09T06:07:42;17.20;99.90
71367;DHT22;60030;52.274;8.040;2022-09-09T06:10:10;17.30;99.90
71367;DHT22;60030;52.274;8.040;2022-09-09T06:12:39;17.30;99.90
71367;DHT22;60030;52.274;8.040;2022-09-09T06:15:07;17.30;99.90
71367;DHT22;60030;52.274;8.040;2022-09-09T06:17:35;17.40;99.90
71367;DHT22;60030;52.274;8.040;2022-09-09T06:20:02;17.50;99.90
71367;DHT22;60030;52.274;8.040;2022-09-09T06:22:31;17.50;99.90
71367;DHT22;60030;52.274;8.040;2022-09-09T06:24:59;17.50;99.90
71367;DHT22;60030;52.274;8.040;2022-09-09T06:27:27;17.60;99.90
71367;DHT22;60030;52.274;8.040;2022-09-09T06:29:55;17.60;99.90
71367;DHT22;60030;52.274;8.040;2022-09-09T06:32:22;17.60;99.90
71367;DHT22;60030;52.274;8.040;2022-09-09T06:34:49;17.70;99.90
71367;DHT22;60030;52.274;8.040;2022-09-09T06:37:17;17.70;99.90
71367;DHT22;60030;52.274;8.040;2022-09-09T06:39:48;17.70;99.90
71367;DHT22;60030;52.274;8.040;2022-09-09T06:42:16;17.70;99.90
71367;DHT22;60030;52.274;8.040;2022-09-09T06:44:51;17.70;99.90
71367;DHT22;60030;52.274;8.040;2022-09-09T06:47:28;17.70;99.90
71367;DHT22;60030;52.274;8.040;2022-09-09T06:49:57;17.70;99.90
71367;DHT22;60030;52.274;8.040;2022-09-09T06:52:24;17.70;99.90
71367;DHT22;60030;52.274;8.040;2022-09-09T06:54:53;17.70;99.90
71367;DHT22;60030;52.274;8.040;2022-09-09T06:57:22;17.70;99.90
71367;DHT22;60030;52.274;8.040;2022-09-09T06:59:50;17.70;99.90
71367;DHT22;60030;52.274;8.040;2022-09-09T07:02:18;17.70;99.90
71367;DHT22;60030;52.274;8.040;2022-09-09T07:04:46;17.70;99.90
71367;DHT22;60030;52.274;8.040;2022-09-09T07:07:17;17.80;99.90
71367;DHT22;60030;52.274;8.040;2022-09-09T07:09:44;17.70;99.90
71367;DHT22;60030;52.274;8.040;2022-09-09T07:12:12;17.80;99.90
71367;DHT22;60030;52.274;8.040;2022-09-09T07:14:47;17.80;99.90
71367;DHT22;60030;52.274;8.040;2022-09-09T07:17:14;17.90;99.90
71367;DHT22;60030;52.274;8.040;2022-09-09T07:19:41;17.90;99.90
71367;DHT22;60030;52.274;8.040;2022-09-09T07:22:09;18.00;99.90
71367;DHT22;60030;52.274;8.040;2022-09-09T07:24:36;18.00;99.90
71367;DHT22;60030;52.274;8.040;2022-09-09T07:27:03;18.10;99.90
71367;DHT22;60030;52.274;8.040;2022-09-09T07:29:31;18.20;99.90
71367;DHT22;60030;52.274;8.040;2022-09-09T07:32:00;18.20;99.90
71367;DHT22;60030;52.274;8.040;2022-09-09T07:34:32;18.30;99.90
71367;DHT22;60030;52.274;8.040;2022-09-09T07:36:59;18.30;99.90
71367;DHT22;60030;52.274;8.040;2022-09-09T07:39:27;18.40;99.90
71367;DHT22;60030;52.274;8.040;2022-09-09T07:41:55;18.50;99.90
71367;DHT22;60030;52.274;8.040;2022-09-09T07:44:24;18.60;99.90
71367;DHT22;60030;52.274;8.040;2022-09-09T07:47:06;18.60;99.90
71367;DHT22;60030;52.274;8.040;2022-09-09T07:49:46;18.70;99.90
71367;DHT22;60030;52.274;8.040;2022-09-09T07:52:18;18.70;99.90
71367;DHT22;60030;52.274;8.040;2022-09-09T07:54:50;18.60;99.90
71367;DHT22;60030;52.274;8.040;2022-09-09T07:57:18;18.70;99.90
71367;DHT22;60030;52.274;8.040;2022-09-09T07:59:45;18.80;99.90
71367;DHT22;60030;52.274;8.040;2022-09-09T08:02:14;18.90;99.90
71367;DHT22;60030;52.274;8.040;2022-09-09T08:04:41;18.90;99.90
71367;DHT22;60030;52.274;8.040;2022-09-09T08:07:09;18.90;99.90
71367;DHT22;60030;52.274;8.040;2022-09-09T08:09:44;18.90;99.90
71367;DHT22;60030;52.274;8.040;2022-09-09T08:12:20;18.90;99.90
71367;DHT22;60030;52.274;8.040;2022-09-09T08:14:47;19.00;99.90
71367;DHT22;60030;52.274;8.040;2022-09-09T08:17:16;19.10;99.90
71367;DHT22;60030;52.274;8.040;2022-09-09T08:19:44;19.20;99.90
71367;DHT22;60030;52.274;8.040;2022-09-09T08:22:16;19.30;99.90
71367;DHT22;60030;52.274;8.040;2022-09-09T08:24:43;19.40;99.90
71367;DHT22;60030;52.274;8.040;2022-09-09T08:27:11;19.50;99.90
71367;DHT22;60030;52.274;8.040;2022-09-09T08:29:38;19.50;99.90
71367;DHT22;60030;52.274;8.040;2022-09-09T08:32:06;19.60;99.90
71367;DHT22;60030;52.274;8.040;2022-09-09T08:34:36;19.50;99.90
71367;DHT22;60030;52.274;8.040;2022-09-09T08:37:08;19.50;99.90
71367;DHT22;60030;52.274;8.040;2022-09-09T08:39:39;19.50;99.90
71367;DHT22;60030;52.274;8.040;2022-09-09T08:42:28;19.60;99.90
71367;DHT22;60030;52.274;8.040;2022-09-09T08:45:14;19.60;99.90
71367;DHT22;60030;52.274;8.040;2022-09-09T08:50:49;19.60;99.90
71367;DHT22;60030;52.274;8.040;2022-09-09T08:53:23;19.60;99.90
71367;DHT22;60030;52.274;8.040;2022-09-09T08:55:54;19.60;99.90
71367;DHT22;60030;52.274;8.040;2022-09-09T08:58:29;19.90;99.90
71367;DHT22;60030;52.274;8.040;2022-09-09T09:01:14;20.40;99.90
71367;DHT22;60030;52.274;8.040;2022-09-09T09:03:52;20.60;99.90
71367;DHT22;60030;52.274;8.040;2022-09-09T09:06:37;20.60;99.90
71367;DHT22;60030;52.274;8.040;2022-09-09T09:09:18;20.90;99.90
71367;DHT22;60030;52.274;8.040;2022-09-09T09:11:50;20.80;99.90
71367;DHT22;60030;52.274;8.040;2022-09-09T09:14:20;20.90;99.90
71367;DHT22;60030;52.274;8.040;2022-09-09T09:16:52;21.00;99.90
71367;DHT22;60030;52.274;8.040;2022-09-09T09:19:20;20.90;99.90
71367;DHT22;60030;52.274;8.040;2022-09-09T09:21:54;20.70;99.90
71367;DHT22;60030;52.274;8.040;2022-09-09T09:24:28;20.40;99.90
71367;DHT22;60030;52.274;8.040;2022-09-09T09:27:01;20.50;99.90
71367;DHT22;60030;52.274;8.040;2022-09-09T09:29:34;20.70;99.90
71367;DHT22;60030;52.274;8.040;2022-09-09T09:32:02;20.80;99.90
71367;DHT22;60030;52.274;8.040;2022-09-09T09:34:32;20.90;99.90
71367;DHT22;60030;52.274;8.040;2022-09-09T09:37:01;20.90;99.90
71367;DHT22;60030;52.274;8.040;2022-09-09T09:39:31;20.90;99.90
71367;DHT22;60030;52.274;8.040;2022-09-09T09:42:09;20.80;99.90
71367;DHT22;60030;52.274;8.040;2022-09-09T09:44:40;20.80;99.90
71367;DHT22;60030;52.274;8.040;2022-09-09T09:47:14;21.00;99.90
71367;DHT22;60030;52.274;8.040;2022-09-09T09:49:52;21.20;99.90
71367;DHT22;60030;52.274;8.040;2022-09-09T09:52:23;21.40;99.90
71367;DHT22;60030;52.274;8.040;2022-09-09T09:54:51;21.40;99.90
71367;DHT22;60030;52.274;8.040;2022-09-09T09:57:24;21.50;99.90
71367;DHT22;60030;52.274;8.040;2022-09-09T10:00:02;21.70;99.90
71367;DHT22;60030;52.274;8.040;2022-09-09T10:02:42;21.60;99.90
71367;DHT22;60030;52.274;8.040;2022-09-09T10:05:16;21.70;99.90
71367;DHT22;60030;52.274;8.040;2022-09-09T10:08:00;21.50;99.90
71367;DHT22;60030;52.274;8.040;2022-09-09T10:10:37;21.30;99.90
71367;DHT22;60030;52.274;8.040;2022-09-09T10:13:13;21.20;99.90
71367;DHT22;60030;52.274;8.040;2022-09-09T10:15:48;21.20;99.90
71367;DHT22;60030;52.274;8.040;2022-09-09T10:18:39;21.10;99.90
71367;DHT22;60030;52.274;8.040;2022-09-09T10:21:20;21.10;99.90
71367;DHT22;60030;52.274;8.040;2022-09-09T10:24:07;21.20;99.90
71367;DHT22;60030;52.274;8.040;2022-09-09T10:26:47;21.30;99.90
71367;DHT22;60030;52.274;8.040;2022-09-09T10:29:34;21.40;99.90
71367;DHT22;60030;52.274;8.040;2022-09-09T10:32:19;21.60;99.90
71367;DHT22;60030;52.274;8.040;2022-09-09T10:34:56;21.60;99.90
71367;DHT22;60030;52.274;8.040;2022-09-09T10:37:35;21.70;99.90
71367;DHT22;60030;52.274;8.040;2022-09-09T10:40:20;21.80;99.90
71367;DHT22;60030;52.274;8.040;2022-09-09T10:42:53;22.20;99.90
71367;DHT22;60030;52.274;8.040;2022-09-09T10:45:28;22.10;99.90
71367;DHT22;60030;52.274;8.040;2022-09-09T10:48:12;22.10;99.90
71367;DHT22;60030;52.274;8.040;2022-09-09T10:50:50;21.50;99.90
71367;DHT22;60030;52.274;8.040;2022-09-09T10:53:28;21.50;99.90
71367;DHT22;60030;52.274;8.040;2022-09-09T10:56:04;21.60;99.90
71367;DHT22;60030;52.274;8.040;2022-09-09T10:58:37;21.50;99.90
71367;DHT22;60030;52.274;8.040;2022-09-09T11:01:11;21.40;99.90
71367;DHT22;60030;52.274;8.040;2022-09-09T11:03:42;21.50;99.90
71367;DHT22;60030;52.274;8.040;2022-09-09T11:06:12;21.40;99.90
71367;DHT22;60030;52.274;8.040;2022-09-09T11:08:40;21.10;99.90
71367;DHT22;60030;52.274;8.040;2022-09-09T11:11:12;21.20;99.90
71367;DHT22;60030;52.274;8.040;2022-09-09T11:13:47;21.40;99.90
71367;DHT22;60030;52.274;8.040;2022-09-09T11:16:23;21.80;99.90
71367;DHT22;60030;52.274;8.040;2022-09-09T11:18:55;22.00;99.90
71367;DHT22;60030;52.274;8.040;2022-09-09T11:21:27;22.00;99.90
71367;DHT22;60030;52.274;8.040;2022-09-09T11:23:59;22.00;99.90
71367;DHT22;60030;52.274;8.040;2022-09-09T11:26:33;21.80;99.90
71367;DHT22;60030;52.274;8.040;2022-09-09T11:29:22;21.80;99.90
71367;DHT22;60030;52.274;8.040;2022-09-09T11:32:04;22.10;99.90
71367;DHT22;60030;52.274;8.040;2022-09-09T11:34:43;22.70;99.90
71367;DHT22;60030;52.274;8.040;2022-09-09T11:37:31;23.10;99.90
71367;DHT22;60030;52.274;8.040;2022-09-09T11:40:17;23.20;99.90
71367;DHT22;60030;52.274;8.040;2022-09-09T11:42:47;23.20;99.90
71367;DHT22;60030;52.274;8.040;2022-09-09T11:45:24;23.40;99.90
71367;DHT22;60030;52.274;8.040;2022-09-09T11:47:55;23.70;99.90
71367;DHT22;60030;52.274;8.040;2022-09-09T11:50:31;23.50;99.90
71367;DHT22;60030;52.274;8.040;2022-09-09T11:53:23;23.50;99.90
71367;DHT22;60030;52.274;8.040;2022-09-09T11:56:27;23.20;99.90
71367;DHT22;60030;52.274;8.040;2022-09-09T11:58:59;22.90;99.90
71367;DHT22;60030;52.274;8.040;2022-09-09T12:01:39;22.60;99.90
71367;DHT22;60030;52.274;8.040;2022-09-09T12:04:32;22.40;99.90
71367;DHT22;60030;52.274;8.040;2022-09-09T12:07:02;22.50;99.90
71367;DHT22;60030;52.274;8.040;2022-09-09T12:09:36;22.40;99.90
71367;DHT22;60030;52.274;8.040;2022-09-09T12:12:21;22.40;99.90
71367;DHT22;60030;52.274;8.040;2022-09-09T12:17:44;22.40;99.90
71367;DHT22;60030;52.274;8.040;2022-09-09T12:20:14;22.20;99.90
71367;DHT22;60030;52.274;8.040;2022-09-09T12:22:59;22.10;99.90
71367;DHT22;60030;52.274;8.040;2022-09-09T12:25:35;22.10;99.90
71367;DHT22;60030;52.274;8.040;2022-09-09T12:28:10;22.20;99.90
71367;DHT22;60030;52.274;8.040;2022-09-09T12:30:46;22.30;99.90
71367;DHT22;60030;52.274;8.040;2022-09-09T12:33:18;22.40;99.90
71367;DHT22;60030;52.274;8.040;2022-09-09T12:35:49;22.50;99.90
71367;DHT22;60030;52.274;8.040;2022-09-09T12:38:22;23.10;99.90
71367;DHT22;60030;52.274;8.040;2022-09-09T12:40:54;23.40;99.90
71367;DHT22;60030;52.274;8.040;2022-09-09T12:43:24;23.70;99.90
71367;DHT22;60030;52.274;8.040;2022-09-09T12:45:56;23.40;99.90
71367;DHT22;60030;52.274;8.040;2022-09-09T12:48:33;23.20;99.90
71367;DHT22;60030;52.274;8.040;2022-09-09T12:51:02;23.10;99.90
71367;DHT22;60030;52.274;8.040;2022-09-09T12:53:33;22.80;99.90
71367;DHT22;60030;52.274;8.040;2022-09-09T12:56:04;23.00;99.90
71367;DHT22;60030;52.274;8.040;2022-09-09T12:58:33;23.20;99.90
71367;DHT22;60030;52.274;8.040;2022-09-09T13:01:03;23.90;99.90
71367;DHT22;60030;52.274;8.040;2022-09-09T13:03:31;24.40;99.90
71367;DHT22;60030;52.274;8.040;2022-09-09T13:06:11;24.20;99.90
71367;DHT22;60030;52.274;8.040;2022-09-09T13:08:38;24.40;99.80
71367;DHT22;60030;52.274;8.040;2022-09-09T13:11:10;24.90;98.50
71367;DHT22;60030;52.274;8.040;2022-09-09T13:13:40;25.30;97.10
71367;DHT22;60030;52.274;8.040;2022-09-09T13:16:20;25.60;96.00
71367;DHT22;60030;52.274;8.040;2022-09-09T13:18:48;26.10;94.40
71367;DHT22;60030;52.274;8.040;2022-09-09T13:21:16;26.90;93.10
71367;DHT22;60030;52.274;8.040;2022-09-09T13:23:48;27.70;90.70
71367;DHT22;60030;52.274;8.040;2022-09-09T13:26:22;28.30;86.30
71367;DHT22;60030;52.274;8.040;2022-09-09T13:28:50;26.90;86.60
71367;DHT22;60030;52.274;8.040;2022-09-09T13:31:23;26.20;89.60
71367;DHT22;60030;52.274;8.040;2022-09-09T13:33:53;26.00;90.30
71367;DHT22;60030;52.274;8.040;2022-09-09T13:36:29;26.70;85.60
71367;DHT22;60030;52.274;8.040;2022-09-09T13:38:58;26.00;89.10
71367;DHT22;60030;52.274;8.040;2022-09-09T13:41:29;25.60;88.80
71367;DHT22;60030;52.274;8.040;2022-09-09T13:43:57;24.90;90.20
71367;DHT22;60030;52.274;8.040;2022-09-09T13:46:31;25.40;88.70
71367;DHT22;60030;52.274;8.040;2022-09-09T13:49:00;25.40;90.40
71367;DHT22;60030;52.274;8.040;2022-09-09T13:51:34;26.00;88.40
71367;DHT22;60030;52.274;8.040;2022-09-09T13:54:03;26.40;87.60
71367;DHT22;60030;52.274;8.040;2022-09-09T13:56:32;25.70;87.00
71367;DHT22;60030;52.274;8.040;2022-09-09T13:58:59;26.10;85.60
71367;DHT22;60030;52.274;8.040;2022-09-09T14:01:27;26.60;82.60
71367;DHT22;60030;52.274;8.040;2022-09-09T14:03:55;28.40;77.30
71367;DHT22;60030;52.274;8.040;2022-09-09T14:06:22;29.30;72.60
71367;DHT22;60030;52.274;8.040;2022-09-09T14:08:50;27.50;75.80
71367;DHT22;60030;52.274;8.040;2022-09-09T14:11:18;25.80;79.60
71367;DHT22;60030;52.274;8.040;2022-09-09T14:13:47;25.00;81.90
71367;DHT22;60030;52.274;8.040;2022-09-09T14:16:15;24.70;84.70
71367;DHT22;60030;52.274;8.040;2022-09-09T14:18:44;24.80;85.70
71367;DHT22;60030;52.274;8.040;2022-09-09T14:21:12;24.90;85.30
71367;DHT22;60030;52.274;8.040;2022-09-09T14:23:39;24.70;85.10
71367;DHT22;60030;52.274;8.040;2022-09-09T14:26:06;24.40;86.80
71367;DHT22;60030;52.274;8.040;2022-09-09T14:28:34;24.30;87.10
71367;DHT22;60030;52.274;8.040;2022-09-09T14:31:03;24.10;88.30
71367;DHT22;60030;52.274;8.040;2022-09-09T14:33:31;23.90;89.80
71367;DHT22;60030;52.274;8.040;2022-09-09T14:36:01;23.50;91.50
71367;DHT22;60030;52.274;8.040;2022-09-09T14:38:29;22.80;94.00
71367;DHT22;60030;52.274;8.040;2022-09-09T14:40:56;22.60;96.70
71367;DHT22;60030;52.274;8.040;2022-09-09T14:43:24;22.20;99.90
71367;DHT22;60030;52.274;8.040;2022-09-09T14:45:52;21.40;99.90
71367;DHT22;60030;52.274;8.040;2022-09-09T14:48:19;21.20;99.90
71367;DHT22;60030;52.274;8.040;2022-09-09T14:50:46;20.90;99.90
71367;DHT22;60030;52.274;8.040;2022-09-09T14:53:16;21.30;99.90
71367;DHT22;60030;52.274;8.040;2022-09-09T14:55:43;21.50;99.90
71367;DHT22;60030;52.274;8.040;2022-09-09T14:58:12;21.70;99.90
71367;DHT22;60030;52.274;8.040;2022-09-09T15:00:40;22.00;99.90
71367;DHT22;60030;52.274;8.040;2022-09-09T15:03:07;21.90;99.90
71367;DHT22;60030;52.274;8.040;2022-09-09T15:05:36;22.00;99.90
71367;DHT22;60030;52.274;8.040;2022-09-09T15:08:03;22.20;99.90
71367;DHT22;60030;52.274;8.040;2022-09-09T15:10:31;22.40;99.90
71367;DHT22;60030;52.274;8.040;2022-09-09T15:12:58;22.40;99.90
71367;DHT22;60030;52.274;8.040;2022-09-09T15:15:25;22.40;99.90
71367;DHT22;60030;52.274;8.040;2022-09-09T15:17:53;22.30;99.90
71367;DHT22;60030;52.274;8.040;2022-09-09T15:20:20;22.10;99.90
71367;DHT22;60030;52.274;8.040;2022-09-09T15:22:47;21.70;99.90
71367;DHT22;60030;52.274;8.040;2022-09-09T15:25:14;21.50;99.90
71367;DHT22;60030;52.274;8.040;2022-09-09T15:27:44;21.50;99.90
71367;DHT22;60030;52.274;8.040;2022-09-09T15:30:12;21.30;99.90
71367;DHT22;60030;52.274;8.040;2022-09-09T15:32:39;21.10;99.90
71367;DHT22;60030;52.274;8.040;2022-09-09T15:35:07;20.80;99.90
71367;DHT22;60030;52.274;8.040;2022-09-09T15:37:34;20.70;99.90
71367;DHT22;60030;52.274;8.040;2022-09-09T15:40:01;20.50;99.90
71367;DHT22;60030;52.274;8.040;2022-09-09T15:42:28;20.20;99.90
71367;DHT22;60030;52.274;8.040;2022-09-09T15:44:57;20.10;99.90
71367;DHT22;60030;52.274;8.040;2022-09-09T15:47:24;20.00;99.90
71367;DHT22;60030;52.274;8.040;2022-09-09T15:49:52;20.00;99.90
71367;DHT22;60030;52.274;8.040;2022-09-09T15:52:19;20.00;99.90
71367;DHT22;60030;52.274;8.040;2022-09-09T15:54:46;20.00;99.90
71367;DHT22;60030;52.274;8.040;2022-09-09T15:57:13;19.90;99.90
71367;DHT22;60030;52.274;8.040;2022-09-09T15:59:40;20.10;99.90
71367;DHT22;60030;52.274;8.040;2022-09-09T16:02:12;20.50;99.90
71367;DHT22;60030;52.274;8.040;2022-09-09T16:04:39;20.60;99.90
71367;DHT22;60030;52.274;8.040;2022-09-09T16:07:06;20.80;99.90
71367;DHT22;60030;52.274;8.040;2022-09-09T16:09:34;21.30;99.90